Skip Navigation Links
NOAA logo - Click to go to the NOAA homepage
NOAA's National Weather Service
Alaska Aviation Weather Unit
  NWS logo - Click to go to the NWS homepage
Left Navbar Graphic     02 AKDT = 10 GMT

   
NOAA is celebrating 200 years of science, service, and stewardship. Visit the NOAA 200th celebration Web site to learn more.
USA.gov is the U.S. Government's official Web portal to all Federal, state and local government Web resources and services.
Facebook
NWS on Facebook

AAWU Home :: Display TAF Add Bookmark
METAR PAWN 270456Z AUTO 00000KT 10SM CLR M16/M23 A3002 RMK AO2 SLP182
     T11561233 FZRANO=

METAR PAWN 270556Z AUTO 01003KT 10SM CLR M22/M28 A3002 RMK AO2 SLP182
     T12221278 11111 21222 56004 FZRANO=

METAR PAWN 270656Z AUTO 01003KT 10SM CLR M24/M29 A3002 RMK AO2
 SLP183 T12441289 FZRANO=

METAR PAWN 270956Z AUTO 02003KT 10SM CLR M27/M31 A3001 RMK AO2 SLP179
     T12721306 FZRANO=


NOAA's National Weather Service
Alaska Aviation Weather Unit
6930 Sand Lake Road
Anchorage, AK 99502-1845
Disclaimer
Credits
Glossary
Privacy Policy
About Us
Career Opportunities
Contact AAWU Internet Services Site last modified: April, 17th 2012